createdAt,value
2019-03-09T00:02:33.540Z,2.95
2019-03-09T00:05:09.984Z,3.22
2019-03-09T00:07:39.436Z,3.15
2019-03-09T00:10:10.495Z,3.00
2019-03-09T00:12:46.854Z,3.08
2019-03-09T00:15:22.386Z,3.15
2019-03-09T00:17:51.904Z,3.58
2019-03-09T00:20:27.972Z,3.55
2019-03-09T00:23:15.013Z,2.92
2019-03-09T00:26:08.654Z,3.27
2019-03-09T00:28:52.935Z,2.90
2019-03-09T00:31:45.524Z,3.20
2019-03-09T00:34:21.535Z,3.45
2019-03-09T00:36:57.138Z,2.75
2019-03-09T00:39:33.113Z,2.87
2019-03-09T00:42:09.876Z,3.15
2019-03-09T00:44:39.308Z,2.77
2019-03-09T00:47:15.453Z,2.80
2019-03-09T00:49:44.961Z,2.85
2019-03-09T00:52:21.292Z,2.67
2019-03-09T00:54:57.245Z,2.12
2019-03-09T00:57:33.586Z,4.20
2019-03-09T01:00:28.970Z,2.65
2019-03-09T01:03:05.432Z,2.83
2019-03-09T01:05:41.678Z,3.62
2019-03-09T01:08:18.043Z,2.30
2019-03-09T01:10:47.635Z,2.95
2019-03-09T01:13:17.146Z,3.12
2019-03-09T01:15:53.318Z,3.40
2019-03-09T01:18:28.745Z,3.02
2019-03-09T01:21:05.142Z,3.10
2019-03-09T01:23:41.634Z,3.42
2019-03-09T01:26:11.229Z,3.10
2019-03-09T01:28:53.634Z,2.62
2019-03-09T01:31:23.275Z,3.05
2019-03-09T01:33:59.221Z,3.80
2019-03-09T01:36:28.684Z,3.40
2019-03-09T01:39:04.710Z,3.33
2019-03-09T01:41:34.145Z,3.40
2019-03-09T01:44:10.563Z,3.35
2019-03-09T01:46:40.009Z,3.10
2019-03-09T01:49:09.443Z,3.62
2019-03-09T01:51:45.465Z,3.35
2019-03-09T01:54:14.969Z,3.30
2019-03-09T01:56:57.415Z,3.55
2019-03-09T01:59:26.924Z,3.98
2019-03-09T02:02:09.172Z,3.58
2019-03-09T02:04:38.625Z,2.42
2019-03-09T02:07:15.200Z,3.10
2019-03-09T02:09:51.426Z,3.30
2019-03-09T02:12:27.541Z,3.50
2019-03-09T02:14:57.132Z,3.70
2019-03-09T02:17:33.564Z,3.42
2019-03-09T02:20:03.805Z,4.17
2019-03-09T02:22:39.815Z,3.58
2019-03-09T02:25:10.670Z,3.90
2019-03-09T02:27:47.272Z,3.95
2019-03-09T02:30:18.622Z,3.75
2019-03-09T02:32:48.254Z,4.10
2019-03-09T02:35:25.159Z,3.47
2019-03-09T02:38:03.005Z,4.03
2019-03-09T02:40:39.467Z,4.08
2019-03-09T02:43:08.910Z,4.17
2019-03-09T02:45:45.027Z,3.27
2019-03-09T02:48:14.469Z,3.72
2019-03-09T02:50:52.503Z,3.62
2019-03-09T02:53:21.939Z,3.60
2019-03-09T02:55:58.626Z,3.83
2019-03-09T02:58:28.128Z,3.37
2019-03-09T03:01:28.575Z,3.90
2019-03-09T03:03:58.084Z,3.47
2019-03-09T03:06:27.588Z,3.25
2019-03-09T03:09:11.402Z,3.35
2019-03-09T03:11:48.079Z,3.37
2019-03-09T03:14:24.802Z,3.70
2019-03-09T03:16:54.246Z,3.80
2019-03-09T03:19:30.868Z,3.27
2019-03-09T03:22:00.371Z,4.33
2019-03-09T03:24:29.798Z,4.60
2019-03-09T03:27:05.760Z,4.15
2019-03-09T03:29:35.195Z,4.58
2019-03-09T03:32:10.988Z,3.92
2019-03-09T03:34:40.497Z,4.37
2019-03-09T03:37:16.399Z,4.67
2019-03-09T03:39:52.455Z,4.33
2019-03-09T03:42:28.637Z,4.53
2019-03-09T03:44:58.072Z,6.97
2019-03-09T03:47:34.163Z,5.83
2019-03-09T03:50:04.323Z,6.45
2019-03-09T03:52:40.215Z,6.92
2019-03-09T03:55:12.751Z,3.98
2019-03-09T03:57:48.788Z,4.90
2019-03-09T04:00:18.544Z,6.67
2019-03-09T04:03:00.654Z,7.25
2019-03-09T04:05:36.740Z,9.50
2019-03-09T04:08:13.016Z,5.47
2019-03-09T04:10:42.592Z,8.80
2019-03-09T04:13:18.828Z,8.50
2019-03-09T04:15:48.259Z,9.30
2019-03-09T04:18:23.712Z,7.17
2019-03-09T04:21:01.964Z,10.38
2019-03-09T04:23:37.685Z,11.55
2019-03-09T04:26:07.192Z,9.48
2019-03-09T04:28:42.946Z,9.75
2019-03-09T04:31:12.463Z,6.92
2019-03-09T04:33:48.554Z,10.45
2019-03-09T04:36:17.994Z,9.68
2019-03-09T04:38:47.444Z,10.65
2019-03-09T04:41:29.585Z,9.55
2019-03-09T04:44:06.159Z,7.75
2019-03-09T04:46:35.596Z,8.90
2019-03-09T04:49:11.807Z,8.13
2019-03-09T04:51:41.244Z,8.20
2019-03-09T04:54:17.433Z,9.03
2019-03-09T04:56:46.934Z,9.30
2019-03-09T04:59:22.544Z,11.20
2019-03-09T05:01:52.061Z,7.70
2019-03-09T05:04:41.725Z,8.10
2019-03-09T05:07:29.263Z,8.45
2019-03-09T05:10:28.315Z,11.25
2019-03-09T05:13:12.234Z,7.67
2019-03-09T05:15:48.574Z,6.90
2019-03-09T05:18:18.008Z,7.15
2019-03-09T05:20:54.520Z,6.60
2019-03-09T05:23:30.420Z,6.33
2019-03-09T05:25:59.931Z,6.20
2019-03-09T05:28:36.289Z,6.78
2019-03-09T05:31:05.723Z,7.33
2019-03-09T05:33:41.724Z,7.10
2019-03-09T05:36:11.237Z,6.40
2019-03-09T05:38:47.397Z,6.60
2019-03-09T05:41:22.872Z,6.15
2019-03-09T05:43:58.571Z,6.40
2019-03-09T05:46:35.094Z,6.55
2019-03-09T05:49:11.713Z,6.70
2019-03-09T05:51:41.169Z,7.42
2019-03-09T05:54:10.598Z,7.47
2019-03-09T05:56:52.889Z,8.65
2019-03-09T05:59:22.332Z,7.45
2019-03-09T06:01:58.790Z,8.68
2019-03-09T06:04:35.227Z,8.35
2019-03-09T06:07:11.656Z,8.43
2019-03-09T06:09:53.233Z,9.43
2019-03-09T06:12:22.685Z,7.62
2019-03-09T06:14:59.317Z,9.18
2019-03-09T06:17:28.771Z,7.22
2019-03-09T06:20:04.985Z,8.30
2019-03-09T06:22:34.425Z,7.08
2019-03-09T06:25:04.652Z,8.85
2019-03-09T06:27:46.346Z,8.60
2019-03-09T06:30:16.103Z,7.42
2019-03-09T06:33:25.036Z,7.58
2019-03-09T06:36:26.633Z,7.72
2019-03-09T06:39:00.341Z,10.43
2019-03-09T06:41:43.754Z,10.35
2019-03-09T06:44:13.268Z,8.75
2019-03-09T06:46:42.725Z,10.70
2019-03-09T06:49:19.087Z,9.70
2019-03-09T06:51:54.775Z,10.55
2019-03-09T06:54:30.561Z,11.48
2019-03-09T06:57:13.785Z,10.00
2019-03-09T06:59:45.366Z,10.72
2019-03-09T07:02:14.803Z,9.30
2019-03-09T07:04:57.306Z,10.13
2019-03-09T07:07:41.122Z,10.85
2019-03-09T07:10:10.711Z,11.05
2019-03-09T07:12:46.753Z,11.75
2019-03-09T07:15:28.323Z,11.70
2019-03-09T07:18:11.328Z,11.25
2019-03-09T07:20:40.975Z,12.30
2019-03-09T07:23:10.577Z,11.78
2019-03-09T07:25:47.001Z,12.18
2019-03-09T07:28:16.666Z,10.68
2019-03-09T07:30:53.603Z,13.80
2019-03-09T07:33:29.260Z,13.10
2019-03-09T07:35:58.776Z,12.98
2019-03-09T07:38:35.194Z,13.03
2019-03-09T07:41:04.857Z,12.95
2019-03-09T07:43:41.250Z,13.40
2019-03-09T07:46:17.285Z,13.83
2019-03-09T07:48:46.732Z,14.00
2019-03-09T07:51:23.041Z,13.88
2019-03-09T07:53:58.686Z,15.20
2019-03-09T07:56:28.289Z,13.90
2019-03-09T07:59:04.394Z,14.13
2019-03-09T08:01:33.978Z,13.83
2019-03-09T08:04:09.670Z,13.80
2019-03-09T08:06:52.149Z,12.82
2019-03-09T08:09:28.032Z,13.78
2019-03-09T08:12:04.394Z,14.15
2019-03-09T08:14:41.039Z,13.45
2019-03-09T08:17:16.901Z,14.18
2019-03-09T08:19:46.418Z,15.25
2019-03-09T08:22:22.794Z,13.58
2019-03-09T08:24:52.249Z,12.53
2019-03-09T08:27:27.795Z,14.05
2019-03-09T08:29:57.253Z,14.47
2019-03-09T08:32:33.768Z,15.85
2019-03-09T08:35:09.801Z,14.50
2019-03-09T08:37:39.348Z,15.32
2019-03-09T08:40:21.349Z,16.37
2019-03-09T08:42:57.776Z,13.60
2019-03-09T08:45:33.443Z,14.98
2019-03-09T08:48:09.791Z,14.85
2019-03-09T08:50:39.446Z,14.83
2019-03-09T08:53:16.285Z,14.68
2019-03-09T08:55:45.813Z,13.50
2019-03-09T08:58:21.935Z,13.53
2019-03-09T09:00:51.501Z,13.78
2019-03-09T09:03:33.471Z,13.22
2019-03-09T09:06:09.493Z,14.00
2019-03-09T09:08:51.684Z,12.10
2019-03-09T09:11:33.690Z,14.28
2019-03-09T09:14:09.457Z,12.75
2019-03-09T09:16:38.919Z,18.57
2019-03-09T09:19:14.884Z,12.82
2019-03-09T09:21:44.417Z,13.75
2019-03-09T09:24:14.320Z,14.55
2019-03-09T09:26:50.436Z,12.28
2019-03-09T09:29:26.454Z,15.15
2019-03-09T09:31:56.051Z,14.23
2019-03-09T09:34:32.273Z,14.75
2019-03-09T09:37:08.258Z,15.95
2019-03-09T09:39:37.929Z,15.88
2019-03-09T09:42:14.058Z,27.10
2019-03-09T09:44:49.836Z,22.22
2019-03-09T09:47:19.784Z,17.95
2019-03-09T09:49:55.613Z,15.65
2019-03-09T09:52:31.668Z,17.70
2019-03-09T09:55:01.137Z,15.28
2019-03-09T09:57:37.250Z,14.70
2019-03-09T10:00:11.669Z,10.23
2019-03-09T10:02:47.951Z,15.25
2019-03-09T10:05:25.627Z,14.58
2019-03-09T10:08:01.493Z,16.23
2019-03-09T10:10:51.116Z,15.65
2019-03-09T10:13:20.625Z,16.42
2019-03-09T10:15:56.624Z,17.37
2019-03-09T10:18:32.192Z,15.85
2019-03-09T10:21:01.791Z,16.17
2019-03-09T10:23:37.736Z,17.23
2019-03-09T10:26:07.413Z,16.32
2019-03-09T10:28:43.417Z,17.23
2019-03-09T10:31:12.969Z,17.02
2019-03-09T10:33:49.175Z,16.65
2019-03-09T10:36:18.709Z,15.48
2019-03-09T10:38:55.850Z,15.72
2019-03-09T10:41:25.292Z,16.02
2019-03-09T10:43:54.811Z,16.35
2019-03-09T10:46:30.577Z,14.38
2019-03-09T10:49:00.116Z,10.93
2019-03-09T10:51:35.730Z,15.05
2019-03-09T10:54:05.338Z,14.80
2019-03-09T10:56:41.405Z,15.45
2019-03-09T10:59:17.768Z,16.97
2019-03-09T11:01:54.280Z,15.78
2019-03-09T11:04:31.040Z,16.12
2019-03-09T11:07:00.950Z,13.55
2019-03-09T11:09:44.336Z,14.23
2019-03-09T11:12:20.874Z,18.17
2019-03-09T11:14:57.073Z,8.28
2019-03-09T11:17:26.786Z,21.93
2019-03-09T11:20:02.797Z,19.87
2019-03-09T11:22:39.446Z,42.17
2019-03-09T11:25:16.574Z,18.50
2019-03-09T11:27:53.123Z,24.47
2019-03-09T11:30:27.507Z,67.70
2019-03-09T11:33:03.923Z,11.33
2019-03-09T11:35:40.654Z,27.37
2019-03-09T11:38:22.948Z,23.87
2019-03-09T11:40:58.535Z,30.35
2019-03-09T11:43:32.301Z,21.33
2019-03-09T11:46:01.974Z,27.62
2019-03-09T11:48:38.552Z,37.93
2019-03-09T11:51:15.048Z,8.60
2019-03-09T11:53:44.505Z,13.25
2019-03-09T11:56:20.317Z,6.67
2019-03-09T11:58:49.910Z,6.87
2019-03-09T12:01:19.521Z,4.80
2019-03-09T12:03:55.514Z,7.15
2019-03-09T12:06:31.695Z,7.17
2019-03-09T12:09:07.855Z,5.92
2019-03-09T12:11:51.146Z,5.42
2019-03-09T12:14:27.765Z,6.35
2019-03-09T12:17:04.015Z,5.05
2019-03-09T12:19:33.443Z,4.05
2019-03-09T12:22:10.046Z,3.87
2019-03-09T12:24:39.837Z,3.52
2019-03-09T12:27:09.431Z,4.55
2019-03-09T12:29:44.954Z,3.52
2019-03-09T12:32:14.682Z,2.80
2019-03-09T12:34:44.187Z,2.50
2019-03-09T12:37:20.597Z,3.50
2019-03-09T12:40:02.963Z,3.85
2019-03-09T12:42:32.410Z,2.92
2019-03-09T12:45:08.053Z,4.03
2019-03-09T12:47:37.735Z,4.62
2019-03-09T12:50:20.377Z,4.10
2019-03-09T12:52:49.974Z,3.98
2019-03-09T12:55:26.204Z,5.17
2019-03-09T12:57:55.645Z,4.00
2019-03-09T13:00:25.823Z,3.65
2019-03-09T13:03:02.174Z,4.40
2019-03-09T13:05:31.680Z,4.05
2019-03-09T13:08:14.839Z,3.55
2019-03-09T13:10:51.391Z,3.22
2019-03-09T13:13:33.989Z,3.35
2019-03-09T13:16:10.784Z,3.37
2019-03-09T13:18:40.302Z,2.52
2019-03-09T13:21:16.757Z,3.05
2019-03-09T13:23:52.738Z,3.60
2019-03-09T13:26:29.325Z,3.70
2019-03-09T13:28:58.831Z,11.10
2019-03-09T13:31:30.980Z,5.83
2019-03-09T13:34:07.250Z,1.82
2019-03-09T13:36:36.901Z,3.30
2019-03-09T13:39:07.830Z,2.22
2019-03-09T13:41:44.240Z,2.33
2019-03-09T13:44:13.693Z,2.20
2019-03-09T13:46:43.287Z,2.62
2019-03-09T13:49:19.427Z,2.90
2019-03-09T13:52:16.332Z,2.25
2019-03-09T13:54:45.854Z,1.40
2019-03-09T13:57:21.872Z,2.60
2019-03-09T13:59:51.400Z,2.27
2019-03-09T14:02:20.943Z,2.80
2019-03-09T14:04:57.579Z,2.58
2019-03-09T14:07:35.036Z,2.37
2019-03-09T14:10:12.990Z,3.00
2019-03-09T14:12:56.235Z,3.90
2019-03-09T14:15:32.116Z,4.03
2019-03-09T14:18:07.825Z,3.90
2019-03-09T14:20:37.362Z,5.08
2019-03-09T14:23:13.457Z,5.55
2019-03-09T14:25:43.057Z,14.93
2019-03-09T14:28:12.742Z,9.38
2019-03-09T14:30:49.368Z,11.12
2019-03-09T14:33:20.697Z,3.00
2019-03-09T14:35:56.551Z,4.90
2019-03-09T14:38:26.066Z,2.37
2019-03-09T14:41:02.394Z,3.12
2019-03-09T14:43:31.913Z,3.27
2019-03-09T14:46:08.036Z,2.10
2019-03-09T14:48:37.575Z,1.67
2019-03-09T14:51:08.229Z,2.10
2019-03-09T14:53:50.541Z,2.80
2019-03-09T14:56:26.175Z,2.47
2019-03-09T14:59:01.743Z,2.50
2019-03-09T15:01:31.195Z,2.72
2019-03-09T15:04:07.762Z,2.42
2019-03-09T15:06:37.298Z,2.00
2019-03-09T15:09:13.739Z,2.15
2019-03-09T15:11:49.980Z,3.12
2019-03-09T15:14:32.480Z,3.40
2019-03-09T15:17:09.058Z,4.33
2019-03-09T15:19:45.363Z,4.65
2019-03-09T15:22:21.067Z,3.67
2019-03-09T15:24:50.582Z,2.08
2019-03-09T15:27:20.110Z,4.05
2019-03-09T15:29:55.947Z,3.95
2019-03-09T15:32:31.787Z,3.42
2019-03-09T15:35:08.132Z,2.33
2019-03-09T15:37:44.422Z,3.00
2019-03-09T15:40:19.361Z,2.33
2019-03-09T15:43:01.930Z,2.50
2019-03-09T15:45:33.154Z,2.70
2019-03-09T15:48:09.784Z,2.85
2019-03-09T15:50:39.654Z,2.27
2019-03-09T15:53:16.529Z,3.20
2019-03-09T15:55:46.248Z,2.65
2019-03-09T15:58:22.688Z,4.90
2019-03-09T16:00:52.274Z,3.60
2019-03-09T16:03:28.890Z,3.45
2019-03-09T16:06:04.922Z,4.20
2019-03-09T16:08:40.836Z,4.20
2019-03-09T16:11:17.489Z,5.05
2019-03-09T16:13:53.811Z,4.78
2019-03-09T16:16:29.786Z,4.72
2019-03-09T16:19:05.753Z,4.47
2019-03-09T16:21:43.858Z,8.83
2019-03-09T16:24:13.384Z,8.40
2019-03-09T16:26:43.045Z,5.87
2019-03-09T16:29:19.404Z,4.12
2019-03-09T16:31:49.078Z,3.17
2019-03-09T16:34:25.303Z,4.05
2019-03-09T16:37:01.979Z,2.80
2019-03-09T16:39:31.529Z,21.45
2019-03-09T16:42:10.727Z,17.40
2019-03-09T16:44:46.560Z,30.40
2019-03-09T16:47:16.050Z,9.35
2019-03-09T16:49:52.409Z,5.75
2019-03-09T16:52:28.630Z,6.80
2019-03-09T16:55:04.733Z,8.48
2019-03-09T16:57:42.551Z,13.48
2019-03-09T17:00:30.528Z,6.92
2019-03-09T17:03:00.115Z,6.35
2019-03-09T17:05:36.349Z,4.65
2019-03-09T17:08:05.959Z,5.78
2019-03-09T17:10:41.981Z,5.78
2019-03-09T17:13:11.674Z,4.80
2019-03-09T17:16:01.299Z,4.15
2019-03-09T17:18:30.765Z,5.55
2019-03-09T17:21:00.300Z,5.45
2019-03-09T17:23:36.261Z,20.23
2019-03-09T17:26:07.385Z,11.35
2019-03-09T17:28:43.062Z,6.83
2019-03-09T17:31:18.962Z,5.30
2019-03-09T17:33:55.490Z,6.22
2019-03-09T17:36:32.049Z,22.25
2019-03-09T17:39:08.807Z,6.80
2019-03-09T17:41:38.329Z,6.40
2019-03-09T17:44:14.387Z,18.07
2019-03-09T17:46:50.958Z,23.92
2019-03-09T17:49:27.341Z,15.53
2019-03-09T17:51:57.042Z,13.08
2019-03-09T17:54:39.482Z,12.07
2019-03-09T17:57:09.098Z,9.68
2019-03-09T17:59:45.170Z,9.68
2019-03-09T18:02:14.849Z,11.28
2019-03-09T18:04:44.445Z,7.10
2019-03-09T18:07:20.444Z,9.20
2019-03-09T18:09:49.926Z,10.45
2019-03-09T18:12:25.580Z,8.75
2019-03-09T18:15:15.065Z,8.78
2019-03-09T18:17:44.589Z,8.08
2019-03-09T18:20:27.186Z,7.30
2019-03-09T18:22:57.010Z,8.50
2019-03-09T18:25:26.605Z,8.38
2019-03-09T18:28:02.585Z,5.00
2019-03-09T18:30:32.176Z,6.90
2019-03-09T18:33:08.887Z,6.42
2019-03-09T18:35:38.780Z,6.22
2019-03-09T18:38:08.503Z,6.65
2019-03-09T18:40:44.926Z,4.80
2019-03-09T18:43:21.486Z,6.22
2019-03-09T18:45:51.086Z,6.15
2019-03-09T18:48:26.988Z,5.50
2019-03-09T18:50:56.681Z,6.20
2019-03-09T18:53:33.343Z,5.53
2019-03-09T18:56:02.887Z,5.97
2019-03-09T18:58:38.933Z,5.40
2019-03-09T19:01:15.360Z,5.80
2019-03-09T19:03:51.401Z,5.62
2019-03-09T19:06:20.864Z,5.83
2019-03-09T19:09:03.409Z,5.50
2019-03-09T19:11:39.551Z,6.12
2019-03-09T19:14:15.841Z,5.40
2019-03-09T19:16:58.731Z,5.83
2019-03-09T19:19:35.180Z,5.33
2019-03-09T19:22:12.243Z,5.08
2019-03-09T19:24:48.021Z,5.08
2019-03-09T19:27:23.570Z,5.58
2019-03-09T19:29:53.371Z,4.70
2019-03-09T19:32:29.632Z,5.33
2019-03-09T19:35:06.023Z,5.37
2019-03-09T19:37:41.745Z,7.03
2019-03-09T19:40:26.431Z,5.70
2019-03-09T19:43:02.456Z,5.75
2019-03-09T19:45:38.570Z,7.17
2019-03-09T19:48:10.980Z,12.33
2019-03-09T19:50:47.210Z,6.20
2019-03-09T19:53:23.793Z,8.48
2019-03-09T19:55:53.248Z,21.90
2019-03-09T19:58:29.981Z,11.65
2019-03-09T20:00:59.499Z,12.28
2019-03-09T20:03:35.378Z,27.52
2019-03-09T20:06:11.771Z,22.00
2019-03-09T20:08:41.365Z,12.98
2019-03-09T20:11:17.789Z,12.07
2019-03-09T20:13:47.391Z,39.53
2019-03-09T20:16:29.435Z,28.12
2019-03-09T20:19:12.543Z,20.08
2019-03-09T20:21:42.445Z,30.30
2019-03-09T20:24:18.236Z,13.03
2019-03-09T20:26:47.682Z,14.10
2019-03-09T20:29:17.221Z,9.40
2019-03-09T20:31:53.154Z,11.57
2019-03-09T20:34:22.627Z,15.28
2019-03-09T20:36:52.086Z,11.93
2019-03-09T20:39:27.857Z,12.25
2019-03-09T20:41:57.374Z,8.33
2019-03-09T20:44:33.013Z,19.27
2019-03-09T20:47:02.750Z,13.48
2019-03-09T20:49:38.827Z,25.05
2019-03-09T20:52:08.360Z,16.00
2019-03-09T20:54:44.605Z,16.02
2019-03-09T20:57:29.256Z,13.28
2019-03-09T21:00:05.245Z,21.48
2019-03-09T21:02:41.947Z,10.28
2019-03-09T21:05:18.605Z,13.65
2019-03-09T21:07:48.292Z,19.20
2019-03-09T21:10:26.740Z,15.08
2019-03-09T21:13:10.623Z,13.05
2019-03-09T21:15:46.700Z,12.33
2019-03-09T21:18:32.500Z,13.88
2019-03-09T21:21:08.564Z,12.58
2019-03-09T21:23:44.949Z,11.40
2019-03-09T21:26:21.714Z,13.28
2019-03-09T21:28:57.926Z,11.57
2019-03-09T21:31:34.623Z,10.85
2019-03-09T21:34:16.743Z,14.25
2019-03-09T21:36:46.330Z,13.00
2019-03-09T21:39:23.038Z,12.68
2019-03-09T21:41:52.861Z,13.43
2019-03-09T21:44:29.493Z,14.80
2019-03-09T21:47:06.810Z,11.85
2019-03-09T21:49:49.554Z,13.10
2019-03-09T21:52:25.294Z,12.93
2019-03-09T21:54:54.973Z,11.18
2019-03-09T21:57:30.809Z,11.28
2019-03-09T22:00:00.370Z,9.33
2019-03-09T22:02:36.382Z,9.40
2019-03-09T22:05:10.147Z,9.75
2019-03-09T22:07:45.888Z,11.53
2019-03-09T22:10:22.788Z,11.88
2019-03-09T22:12:58.890Z,12.03
2019-03-09T22:15:35.191Z,14.10
2019-03-09T22:18:12.130Z,10.35
2019-03-09T22:20:48.882Z,9.33
2019-03-09T22:23:25.361Z,8.83
2019-03-09T22:25:54.806Z,12.45
2019-03-09T22:28:31.566Z,10.53
2019-03-09T22:31:08.377Z,10.72
2019-03-09T22:33:44.319Z,11.73
2019-03-09T22:36:20.976Z,9.93
2019-03-09T22:38:50.425Z,8.18
2019-03-09T22:41:26.629Z,8.20
2019-03-09T22:44:02.165Z,8.20
2019-03-09T22:46:38.712Z,8.20
2019-03-09T22:49:14.843Z,9.00
2019-03-09T22:51:51.285Z,8.43
2019-03-09T22:54:20.948Z,10.13
2019-03-09T22:56:57.290Z,10.13
2019-03-09T22:59:39.899Z,6.90
2019-03-09T23:02:16.005Z,9.38
2019-03-09T23:04:51.793Z,8.95
2019-03-09T23:07:27.485Z,8.53
2019-03-09T23:09:56.947Z,8.25
2019-03-09T23:12:33.053Z,6.22
2019-03-09T23:15:02.513Z,10.20
2019-03-09T23:17:38.171Z,8.35
2019-03-09T23:20:17.498Z,8.13
2019-03-09T23:22:53.679Z,7.00
2019-03-09T23:25:23.254Z,7.65
2019-03-09T23:27:59.356Z,9.08
2019-03-09T23:30:29.016Z,6.22
2019-03-09T23:33:04.834Z,6.30
2019-03-09T23:35:41.358Z,7.72
2019-03-09T23:38:18.099Z,9.90
2019-03-09T23:40:47.680Z,9.08
2019-03-09T23:43:24.238Z,5.30
2019-03-09T23:46:00.777Z,9.33
2019-03-09T23:48:37.387Z,5.42
2019-03-09T23:51:07.144Z,7.53
2019-03-09T23:53:42.998Z,8.53
2019-03-09T23:56:13.682Z,8.18
2019-03-09T23:58:43.331Z,3.95
